Time;durP1;ratioP1;P1;durP2;ratioP2;P2;SDS_P1;SDS_P2;PMS_P1;PMS_P2;Temp;Humidity;BMP_temperature;BMP_pressure;BME280_temperature;BME280_humidity;BME280_pressure;Samples;Min_cycle;Max_cycle;Signal;HPM_P1;HPM_P2
2021/07/10 00:01:19;;;;;;;12.10;8.75;;;20.50;87.70;;;;;;6218415;23;20012;-84
2021/07/10 00:03:44;;;;;;;11.70;8.75;;;20.50;87.80;;;;;;6218591;23;20001;-85
2021/07/10 00:06:12;;;;;;;10.52;8.45;;;20.40;88.00;;;;;;6220417;23;20146;-88
2021/07/10 00:08:38;;;;;;;12.80;8.88;;;20.40;88.20;;;;;;6203090;23;20008;-85
2021/07/10 00:11:05;;;;;;;14.27;9.50;;;20.40;88.20;;;;;;6247401;23;20000;-83
2021/07/10 00:13:31;;;;;;;10.73;9.13;;;20.30;88.40;;;;;;6239713;22;19996;-85
2021/07/10 00:15:57;;;;;;;12.10;9.40;;;20.20;88.60;;;;;;6246593;23;19992;-88
2021/07/10 00:18:22;;;;;;;13.65;9.30;;;20.20;89.00;;;;;;6271309;22;19988;-85
2021/07/10 00:20:49;;;;;;;11.30;8.98;;;20.20;89.00;;;;;;6218972;22;20008;-86
2021/07/10 00:23:15;;;;;;;10.90;9.50;;;20.20;89.30;;;;;;6231777;23;20422;-85
2021/07/10 00:25:42;;;;;;;11.15;8.85;;;20.20;89.20;;;;;;6236392;23;20000;-84
2021/07/10 00:28:08;;;;;;;12.25;8.82;;;20.20;89.20;;;;;;6216972;22;20004;-84
2021/07/10 00:30:35;;;;;;;12.25;9.38;;;20.20;89.30;;;;;;6246021;22;20016;-85
2021/07/10 00:33:02;;;;;;;10.70;8.38;;;20.10;89.40;;;;;;6248729;22;20007;-84
2021/07/10 00:35:28;;;;;;;11.77;9.15;;;20.10;89.40;;;;;;6276551;22;20035;-81
2021/07/10 00:37:54;;;;;;;12.15;9.02;;;20.10;89.40;;;;;;6262401;22;20063;-83
2021/07/10 00:40:20;;;;;;;12.23;9.50;;;20.10;89.50;;;;;;6262633;22;20059;-85
2021/07/10 00:42:46;;;;;;;13.10;10.20;;;20.00;89.60;;;;;;6253638;22;20000;-86
2021/07/10 00:45:14;;;;;;;11.30;8.93;;;20.00;89.40;;;;;;6276002;22;19999;-86
2021/07/10 00:47:40;;;;;;;11.52;8.65;;;20.00;89.60;;;;;;6249262;22;20038;-85
2021/07/10 00:50:15;;;;;;;13.20;9.45;;;20.00;89.60;;;;;;6248257;22;20003;-85
2021/07/10 00:52:41;;;;;;;12.60;9.77;;;19.90;89.50;;;;;;6248281;22;20003;-85
2021/07/10 00:55:08;;;;;;;12.68;10.25;;;19.90;89.60;;;;;;6248566;22;20039;-86
2021/07/10 00:57:35;;;;;;;11.65;9.55;;;19.90;89.70;;;;;;6222701;22;20012;-85
2021/07/10 01:00:22;;;;;;;13.48;10.38;;;19.90;89.90;;;;;;6248422;22;20011;-85
2021/07/10 01:02:50;;;;;;;12.20;9.18;;;19.90;90.00;;;;;;6245733;22;20008;-85
2021/07/10 01:05:24;;;;;;;14.52;10.52;;;19.80;90.20;;;;;;6249055;22;20027;-85
2021/07/10 01:07:50;;;;;;;14.02;10.98;;;19.80;90.30;;;;;;6250010;22;20011;-85
2021/07/10 01:10:19;;;;;;;12.77;10.10;;;19.80;90.30;;;;;;6278319;22;20449;-85
2021/07/10 01:12:48;;;;;;;13.57;10.80;;;19.80;90.30;;;;;;6277483;22;19996;-85
2021/07/10 01:15:18;;;;;;;13.18;10.73;;;19.70;90.40;;;;;;6250156;22;20499;-89
2021/07/10 01:17:45;;;;;;;13.57;10.53;;;19.70;90.40;;;;;;6250357;22;19996;-85
2021/07/10 01:20:18;;;;;;;12.13;10.32;;;19.70;90.50;;;;;;6250327;22;20338;-85
2021/07/10 01:22:45;;;;;;;13.43;10.60;;;19.70;90.50;;;;;;6254220;22;20082;-86
2021/07/10 01:25:14;;;;;;;13.25;10.57;;;19.70;90.50;;;;;;6282517;22;20004;-85
2021/07/10 01:27:41;;;;;;;12.70;10.10;;;19.70;90.60;;;;;;6250595;22;20008;-85
2021/07/10 01:30:11;;;;;;;14.30;10.95;;;19.60;90.70;;;;;;6244830;23;20011;-85
2021/07/10 01:32:38;;;;;;;14.63;11.10;;;19.70;90.80;;;;;;6244937;23;20014;-85
2021/07/10 01:35:05;;;;;;;12.60;10.60;;;19.60;90.90;;;;;;6220018;23;20032;-85
2021/07/10 01:37:31;;;;;;;14.15;10.85;;;19.60;90.90;;;;;;6244870;23;20008;-86
2021/07/10 01:40:00;;;;;;;16.33;11.52;;;19.60;91.00;;;;;;6219751;23;20764;-86
2021/07/10 01:42:25;;;;;;;13.77;10.93;;;19.60;91.10;;;;;;6243980;22;20138;-87
2021/07/10 01:44:51;;;;;;;15.27;12.02;;;19.60;91.10;;;;;;6194666;23;20387;-86
2021/07/10 01:47:20;;;;;;;15.70;11.75;;;19.60;91.20;;;;;;6244541;22;20492;-88
2021/07/10 01:49:46;;;;;;;17.15;13.10;;;19.60;91.20;;;;;;6220225;23;20004;-84
2021/07/10 01:52:11;;;;;;;15.75;12.27;;;19.60;91.20;;;;;;6270191;22;20477;-86
2021/07/10 01:54:37;;;;;;;14.23;11.65;;;19.60;91.30;;;;;;6244874;23;20007;-85
2021/07/10 01:57:09;;;;;;;16.45;12.35;;;19.60;91.30;;;;;;6244971;23;20005;-85
2021/07/10 01:59:36;;;;;;;14.70;11.20;;;19.70;91.40;;;;;;6219710;23;20008;-85
2021/07/10 02:02:02;;;;;;;14.32;10.55;;;19.60;91.40;;;;;;6219388;23;20004;-85
2021/07/10 02:04:28;;;;;;;12.57;10.60;;;19.60;91.40;;;;;;6219339;23;20419;-85
2021/07/10 02:06:54;;;;;;;14.15;10.60;;;19.50;91.40;;;;;;6194555;23;20087;-85
2021/07/10 02:09:19;;;;;;;13.20;10.50;;;19.50;91.40;;;;;;6269804;22;20000;-85
2021/07/10 02:11:47;;;;;;;16.58;11.80;;;19.50;91.50;;;;;;6219424;23;20061;-85
2021/07/10 02:14:18;;;;;;;14.10;11.35;;;19.50;91.50;;;;;;6245223;23;20003;-85
2021/07/10 02:16:46;;;;;;;13.15;11.18;;;19.50;91.60;;;;;;6245215;23;20004;-84
2021/07/10 02:19:12;;;;;;;13.75;11.25;;;19.50;91.60;;;;;;6219288;23;20034;-85
2021/07/10 02:21:38;;;;;;;14.85;11.57;;;19.50;91.70;;;;;;6244705;23;20023;-85
2021/07/10 02:24:06;;;;;;;17.75;12.77;;;19.40;91.60;;;;;;6245276;23;20058;-85
2021/07/10 02:26:32;;;;;;;17.02;12.55;;;19.40;91.70;;;;;;6219717;23;20500;-86
2021/07/10 02:28:58;;;;;;;15.77;12.90;;;19.40;91.70;;;;;;6244718;23;20090;-85
2021/07/10 02:31:23;;;;;;;16.48;12.57;;;19.50;91.80;;;;;;6244189;23;20442;-85
2021/07/10 02:33:53;;;;;;;17.58;12.88;;;19.40;91.70;;;;;;6244999;23;20425;-85
2021/07/10 02:36:19;;;;;;;15.82;12.77;;;19.40;91.80;;;;;;6270466;22;20000;-85
2021/07/10 02:38:45;;;;;;;19.63;12.95;;;19.40;91.80;;;;;;6269920;22;20007;-85
2021/07/10 02:41:11;;;;;;;17.92;12.98;;;19.40;91.80;;;;;;6245080;23;20011;-85
2021/07/10 02:43:36;;;;;;;15.02;11.80;;;19.40;91.80;;;;;;6219092;23;20365;-85
2021/07/10 02:46:02;;;;;;;15.15;11.57;;;19.40;91.80;;;;;;6246542;22;20004;-85
2021/07/10 02:48:28;;;;;;;14.02;10.80;;;19.30;91.70;;;;;;6244673;22;20299;-85
2021/07/10 02:50:53;;;;;;;13.10;10.45;;;19.20;91.70;;;;;;6270065;22;20004;-85
2021/07/10 02:53:19;;;;;;;13.55;10.55;;;19.20;91.70;;;;;;6270254;22;20000;-85
2021/07/10 02:55:45;;;;;;;14.45;10.30;;;19.20;91.70;;;;;;6269119;22;20008;-85
2021/07/10 02:58:10;;;;;;;15.10;11.43;;;19.20;91.70;;;;;;6270473;22;20083;-85
2021/07/10 03:00:36;;;;;;;14.90;11.43;;;19.10;91.70;;;;;;6245602;23;20446;-86
2021/07/10 03:03:03;;;;;;;14.65;11.85;;;19.10;91.80;;;;;;6270387;22;20379;-85
2021/07/10 03:05:28;;;;;;;15.75;12.18;;;19.10;91.80;;;;;;6244384;23;20076;-85
2021/07/10 03:07:55;;;;;;;14.98;11.63;;;19.00;91.80;;;;;;6269961;22;20028;-85
2021/07/10 03:10:25;;;;;;;14.50;11.27;;;19.00;91.80;;;;;;6244643;23;20062;-86
2021/07/10 03:12:51;;;;;;;13.48;11.57;;;19.00;91.80;;;;;;6244551;23;20091;-85
2021/07/10 03:15:17;;;;;;;13.25;10.27;;;19.00;91.80;;;;;;6244470;23;20054;-85
2021/07/10 03:17:44;;;;;;;10.20;8.23;;;18.90;91.80;;;;;;6244360;23;20008;-85
2021/07/10 03:20:11;;;;;;;10.93;9.55;;;18.90;91.90;;;;;;6219447;23;20009;-87
2021/07/10 03:22:37;;;;;;;10.55;9.45;;;18.90;91.90;;;;;;6244376;23;20004;-85
2021/07/10 03:25:05;;;;;;;11.23;9.43;;;18.80;92.00;;;;;;6244440;23;20035;-85
2021/07/10 03:27:30;;;;;;;13.07;10.98;;;18.80;92.10;;;;;;6246263;22;20399;-85
2021/07/10 03:29:56;;;;;;;13.60;11.25;;;18.70;92.10;;;;;;6219682;23;20019;-85
2021/07/10 03:32:24;;;;;;;14.30;11.32;;;18.80;92.20;;;;;;6270381;22;20326;-85
2021/07/10 03:34:50;;;;;;;15.57;11.63;;;18.70;92.20;;;;;;6245086;23;20000;-85
2021/07/10 03:37:16;;;;;;;14.65;11.93;;;18.70;92.20;;;;;;6246258;23;20008;-85
2021/07/10 03:39:41;;;;;;;13.65;9.95;;;18.70;92.20;;;;;;6245547;23;20004;-85
2021/07/10 03:42:07;;;;;;;11.70;9.70;;;18.70;92.30;;;;;;6245195;23;20000;-85
2021/07/10 03:44:33;;;;;;;13.43;10.75;;;18.70;92.30;;;;;;6270981;22;20319;-85
2021/07/10 03:46:59;;;;;;;15.38;10.93;;;18.70;92.40;;;;;;6246209;23;20001;-85
2021/07/10 03:49:25;;;;;;;12.25;10.00;;;18.70;92.40;;;;;;6246590;23;20130;-85
2021/07/10 03:51:51;;;;;;;14.85;11.32;;;18.70;92.50;;;;;;6288288;22;20004;-85
2021/07/10 03:54:17;;;;;;;14.32;11.38;;;18.70;92.50;;;;;;6290778;22;20000;-84
2021/07/10 03:56:42;;;;;;;13.88;11.15;;;18.60;92.50;;;;;;6297538;22;20174;-87
2021/07/10 03:59:08;;;;;;;14.65;11.43;;;18.70;92.60;;;;;;6246623;23;19988;-84
2021/07/10 04:01:34;;;;;;;15.20;11.80;;;18.60;92.50;;;;;;6288553;22;20044;-89
2021/07/10 04:04:00;;;;;;;20.67;11.73;;;18.60;92.60;;;;;;6246797;23;19999;-86
2021/07/10 04:06:26;;;;;;;15.57;12.20;;;18.60;92.70;;;;;;6246060;23;20019;-86
2021/07/10 04:08:52;;;;;;;14.25;11.30;;;18.60;92.70;;;;;;6206520;23;20494;-84
2021/07/10 04:11:18;;;;;;;14.68;11.68;;;18.60;92.80;;;;;;6220911;23;20430;-84
2021/07/10 04:13:44;;;;;;;15.68;12.25;;;18.60;92.90;;;;;;6270912;22;20000;-84
2021/07/10 04:16:09;;;;;;;15.60;12.40;;;18.60;92.90;;;;;;6244722;23;20460;-84
2021/07/10 04:18:37;;;;;;;15.35;12.30;;;18.60;93.00;;;;;;6270967;22;20004;-84
2021/07/10 04:21:06;;;;;;;15.52;12.20;;;18.60;93.00;;;;;;6271614;22;20004;-85
2021/07/10 04:23:32;;;;;;;15.43;11.88;;;18.60;93.10;;;;;;6270850;22;20000;-85
2021/07/10 04:25:58;;;;;;;14.80;10.25;;;18.60;93.10;;;;;;6270633;22;20130;-84
2021/07/10 04:28:24;;;;;;;15.30;10.90;;;18.60;93.00;;;;;;6244837;22;20122;-83
2021/07/10 04:30:50;;;;;;;14.88;10.60;;;18.60;93.10;;;;;;6218462;23;20008;-84
2021/07/10 04:33:16;;;;;;;15.65;11.57;;;18.50;93.10;;;;;;6218567;23;19996;-84
2021/07/10 04:35:41;;;;;;;14.65;12.15;;;18.50;93.40;;;;;;6246075;23;20011;-84
2021/07/10 04:38:07;;;;;;;15.02;11.52;;;18.50;93.20;;;;;;6220754;23;20308;-84
2021/07/10 04:40:35;;;;;;;14.57;11.35;;;18.50;93.30;;;;;;6219195;23;20304;-83
2021/07/10 04:43:01;;;;;;;16.17;12.05;;;18.50;93.30;;;;;;6194985;23;20308;-85
2021/07/10 04:45:28;;;;;;;15.85;11.27;;;18.50;93.40;;;;;;6245722;23;20394;-84
2021/07/10 04:47:54;;;;;;;13.98;10.95;;;18.50;93.50;;;;;;6219298;23;20363;-83
2021/07/10 04:50:21;;;;;;;12.57;10.35;;;18.50;93.50;;;;;;6220801;23;20001;-84
2021/07/10 04:52:48;;;;;;;14.18;10.50;;;18.50;93.50;;;;;;6247617;23;20407;-84
2021/07/10 04:55:16;;;;;;;14.55;10.05;;;18.40;93.40;;;;;;6219860;23;20004;-84
2021/07/10 04:57:44;;;;;;;13.25;10.55;;;18.40;93.50;;;;;;6194263;23;20008;-85
2021/07/10 05:00:10;;;;;;;15.93;12.32;;;18.40;93.60;;;;;;6224700;23;20008;-84
2021/07/10 05:02:37;;;;;;;16.90;12.60;;;18.30;93.60;;;;;;6193421;23;20078;-85
2021/07/10 05:05:04;;;;;;;15.02;11.88;;;18.30;93.70;;;;;;6220561;23;20004;-84
2021/07/10 05:07:30;;;;;;;17.67;12.90;;;18.30;93.80;;;;;;6219012;23;20004;-84
2021/07/10 05:09:58;;;;;;;16.23;11.65;;;18.30;93.90;;;;;;6218488;23;20300;-84
2021/07/10 05:12:24;;;;;;;18.92;13.65;;;18.40;94.00;;;;;;6194729;23;20334;-84
2021/07/10 05:14:51;;;;;;;15.45;12.45;;;18.40;94.10;;;;;;6218457;23;20035;-85
2021/07/10 05:17:18;;;;;;;17.15;13.27;;;18.30;94.10;;;;;;6218855;23;20028;-84
2021/07/10 05:19:44;;;;;;;17.23;13.68;;;18.30;94.20;;;;;;6218780;23;20074;-83
2021/07/10 05:22:11;;;;;;;18.45;14.02;;;18.40;94.30;;;;;;6218885;23;19996;-85
2021/07/10 05:24:39;;;;;;;16.10;13.02;;;18.40;94.30;;;;;;6218542;23;20000;-85
2021/07/10 05:27:05;;;;;;;19.52;14.20;;;18.40;94.40;;;;;;6245913;23;20003;-86
2021/07/10 05:29:31;;;;;;;17.85;13.30;;;18.40;94.40;;;;;;6194261;23;20023;-86
2021/07/10 05:31:57;;;;;;;18.27;14.93;;;18.50;94.50;;;;;;6218479;23;20008;-86
2021/07/10 05:34:22;;;;;;;19.38;14.68;;;18.40;94.50;;;;;;6245606;23;20027;-86
2021/07/10 05:36:48;;;;;;;22.85;15.43;;;18.50;94.60;;;;;;6195918;23;20311;-85
2021/07/10 05:39:16;;;;;;;22.50;17.13;;;18.50;94.60;;;;;;6220754;23;20004;-88
2021/07/10 05:41:42;;;;;;;20.92;17.08;;;18.50;94.70;;;;;;6222094;23;20007;-87
2021/07/10 05:44:08;;;;;;;22.40;17.67;;;18.50;94.70;;;;;;6220059;23;20009;-86
2021/07/10 05:46:33;;;;;;;22.88;18.40;;;18.50;94.70;;;;;;6246227;23;20008;-85
2021/07/10 05:49:03;;;;;;;24.08;20.17;;;18.50;94.80;;;;;;6222369;23;20000;-82
2021/07/10 05:51:31;;;;;;;30.88;25.42;;;18.50;94.80;;;;;;6200625;23;20007;-84
2021/07/10 05:53:57;;;;;;;30.60;24.20;;;18.50;95.10;;;;;;6246557;23;20004;-86
2021/07/10 05:56:22;;;;;;;28.08;23.05;;;18.50;94.80;;;;;;6248205;23;20047;-85
2021/07/10 05:58:48;;;;;;;30.35;25.17;;;18.60;94.80;;;;;;6222712;23;20008;-85
2021/07/10 06:01:14;;;;;;;32.13;27.08;;;18.60;94.90;;;;;;6197772;23;20007;-84
2021/07/10 06:03:40;;;;;;;29.30;25.15;;;18.60;95.00;;;;;;6222192;23;20000;-86
2021/07/10 06:06:06;;;;;;;33.13;27.15;;;18.60;94.90;;;;;;6248087;23;20310;-85
2021/07/10 06:08:31;;;;;;;31.67;27.13;;;18.70;95.00;;;;;;6225315;23;20074;-85
2021/07/10 06:10:59;;;;;;;34.58;27.15;;;18.70;95.00;;;;;;6250291;23;20469;-86
2021/07/10 06:13:25;;;;;;;28.33;23.77;;;18.70;94.90;;;;;;6201191;23;20008;-85
2021/07/10 06:15:51;;;;;;;32.22;25.13;;;18.80;94.90;;;;;;6255554;23;20315;-86
2021/07/10 06:18:17;;;;;;;32.55;25.45;;;18.80;94.90;;;;;;6234598;23;20008;-85
2021/07/10 06:20:45;;;;;;;30.05;23.20;;;18.90;94.90;;;;;;6236540;23;20004;-85
2021/07/10 06:23:12;;;;;;;27.88;22.42;;;18.90;94.90;;;;;;6242534;23;19996;-84
2021/07/10 06:25:38;;;;;;;25.85;20.38;;;19.00;94.80;;;;;;6271158;23;19993;-84
2021/07/10 06:28:07;;;;;;;26.15;20.92;;;19.10;94.80;;;;;;6238507;23;20011;-86
2021/07/10 06:30:36;;;;;;;24.42;19.33;;;19.10;94.90;;;;;;6258017;23;20038;-84
2021/07/10 06:33:03;;;;;;;28.42;21.10;;;19.20;94.90;;;;;;6264546;23;20020;-86
2021/07/10 06:35:30;;;;;;;31.00;23.42;;;19.30;94.90;;;;;;6272470;22;20012;-85
2021/07/10 06:37:56;;;;;;;30.58;23.65;;;19.30;94.80;;;;;;6296995;22;20011;-85
2021/07/10 06:40:22;;;;;;;28.45;21.90;;;19.40;94.80;;;;;;6257205;22;20004;-85
2021/07/10 06:42:47;;;;;;;27.55;21.33;;;19.40;94.80;;;;;;6223952;23;20338;-85
2021/07/10 06:45:16;;;;;;;24.45;19.73;;;19.40;94.70;;;;;;6248746;23;20016;-85
2021/07/10 06:47:42;;;;;;;25.92;19.83;;;19.50;94.60;;;;;;6227433;23;20004;-86
2021/07/10 06:50:12;;;;;;;24.08;18.83;;;19.50;94.60;;;;;;6248613;23;20010;-87
2021/07/10 06:52:38;;;;;;;26.70;20.10;;;19.60;94.60;;;;;;6248981;23;20011;-85
2021/07/10 06:55:07;;;;;;;25.23;19.67;;;19.70;94.50;;;;;;6275323;22;20004;-85
2021/07/10 06:57:33;;;;;;;26.65;20.77;;;19.70;94.50;;;;;;6249125;23;20070;-86
2021/07/10 06:59:59;;;;;;;28.98;22.95;;;19.70;94.40;;;;;;6276089;22;20000;-85
2021/07/10 07:02:24;;;;;;;24.83;20.00;;;19.70;94.30;;;;;;6284188;22;20062;-85
2021/07/10 07:04:50;;;;;;;28.85;22.33;;;19.80;94.30;;;;;;6233316;23;20038;-83
2021/07/10 07:07:17;;;;;;;27.88;21.52;;;19.80;94.30;;;;;;6261569;23;20004;-85
2021/07/10 07:09:43;;;;;;;26.55;20.50;;;19.90;94.30;;;;;;6262125;22;20008;-85
2021/07/10 07:12:09;;;;;;;29.10;21.77;;;19.90;94.30;;;;;;6285339;22;20083;-86
2021/07/10 07:14:35;;;;;;;23.88;19.90;;;19.90;94.30;;;;;;6256277;23;20004;-85
2021/07/10 07:17:03;;;;;;;28.33;21.27;;;20.00;94.10;;;;;;6231619;23;20000;-85
2021/07/10 07:19:32;;;;;;;23.50;19.20;;;20.00;94.00;;;;;;6285171;22;20000;-85
2021/07/10 07:21:58;;;;;;;27.60;21.85;;;20.00;93.90;;;;;;6285130;22;20004;-85
2021/07/10 07:24:24;;;;;;;25.65;21.00;;;20.10;93.70;;;;;;6262192;22;20000;-84
2021/07/10 07:26:50;;;;;;;24.58;20.20;;;20.10;93.60;;;;;;6259478;23;20004;-84
2021/07/10 07:29:16;;;;;;;22.98;18.77;;;20.10;93.50;;;;;;6273619;22;20023;-84
2021/07/10 07:31:45;;;;;;;25.95;20.20;;;20.10;93.50;;;;;;6246780;23;20007;-85
2021/07/10 07:34:11;;;;;;;25.55;21.63;;;20.20;93.60;;;;;;6249220;23;19996;-85
2021/07/10 07:36:37;;;;;;;23.73;19.83;;;20.20;93.40;;;;;;6230549;23;20019;-85
2021/07/10 07:39:06;;;;;;;25.58;20.02;;;20.20;93.30;;;;;;6268584;23;20008;-86
2021/07/10 07:41:37;;;;;;;20.17;16.33;;;20.30;93.30;;;;;;6268819;23;20567;-87
2021/07/10 07:44:04;;;;;;;23.98;18.50;;;20.30;93.20;;;;;;6254462;23;20000;-86
2021/07/10 07:46:30;;;;;;;21.15;16.35;;;20.40;93.20;;;;;;6261050;23;20410;-84
2021/07/10 07:48:56;;;;;;;21.10;16.90;;;20.40;93.20;;;;;;6294728;22;20072;-85
2021/07/10 07:51:22;;;;;;;21.40;16.13;;;20.50;93.20;;;;;;6232530;23;20004;-85
2021/07/10 07:53:50;;;;;;;22.02;16.23;;;20.50;93.10;;;;;;6221054;23;20027;-86
2021/07/10 07:56:16;;;;;;;18.90;15.32;;;20.60;93.00;;;;;;6270523;22;20386;-85
2021/07/10 07:58:44;;;;;;;17.70;14.45;;;20.60;92.80;;;;;;6220052;23;20008;-85
2021/07/10 08:01:10;;;;;;;20.65;16.02;;;20.60;92.60;;;;;;6219878;23;20019;-84
2021/07/10 08:03:36;;;;;;;23.48;17.67;;;20.70;92.30;;;;;;6221637;23;20011;-84
2021/07/10 08:06:03;;;;;;;25.30;20.00;;;20.70;91.80;;;;;;6218596;23;20019;-87
2021/07/10 08:08:36;;;;;;;21.45;17.23;;;20.70;91.50;;;;;;6219171;23;20031;-87
2021/07/10 08:11:12;;;;;;;18.27;14.25;;;20.70;91.60;;;;;;6246009;22;20318;-88
2021/07/10 08:13:38;;;;;;;21.67;15.98;;;20.70;91.80;;;;;;6244519;23;20008;-86
2021/07/10 08:16:06;;;;;;;22.73;17.35;;;20.70;91.50;;;;;;6243656;23;20073;-87
2021/07/10 08:19:37;;;;;;;;;;;;;;;;;;;;;
2021/07/10 08:23:02;;;;;;;;;;;;;;;;;;;;;
2021/07/10 08:36:25;;;;;;;;;;;;;;;;;;;;;
2021/07/10 08:38:21;;;;;;;18.33;13.55;;;21.10;91.10;;;;;;6212657;23;20012;-89
2021/07/10 08:40:52;;;;;;;16.33;12.82;;;21.10;90.90;;;;;;6245252;23;20004;-88
2021/07/10 08:43:19;;;;;;;14.45;10.15;;;21.10;90.90;;;;;;6217267;23;20445;-82
2021/07/10 08:45:49;;;;;;;12.60;9.38;;;21.20;91.00;;;;;;6217495;23;20323;-81
2021/07/10 08:48:15;;;;;;;13.32;9.88;;;21.20;90.80;;;;;;6217700;23;20095;-81
2021/07/10 08:50:42;;;;;;;10.63;8.07;;;21.30;89.50;;;;;;6217723;23;19996;-80
2021/07/10 08:53:10;;;;;;;9.90;7.65;;;21.30;88.90;;;;;;6216984;23;20023;-80
2021/07/10 08:55:36;;;;;;;11.05;8.20;;;21.30;88.00;;;;;;6216963;23;20008;-80
2021/07/10 08:58:03;;;;;;;17.45;9.73;;;21.30;87.90;;;;;;6241905;23;20335;-80
2021/07/10 09:00:36;;;;;;;13.32;10.63;;;21.30;87.90;;;;;;6192354;23;20004;-80
2021/07/10 09:03:03;;;;;;;15.52;11.63;;;21.40;88.40;;;;;;6243901;23;20475;-79
2021/07/10 09:05:29;;;;;;;14.23;10.98;;;21.40;88.40;;;;;;6217372;23;20016;-81
2021/07/10 09:08:25;;;;;;;15.40;11.57;;;21.50;88.60;;;;;;6243788;23;20000;-84
2021/07/10 09:11:31;;;;;;;10.88;7.65;;;21.40;87.30;;;;;;6218115;23;20000;-85
2021/07/10 09:13:57;;;;;;;7.78;5.70;;;21.50;86.90;;;;;;6096895;23;20010;-84
2021/07/10 09:16:34;;;;;;;7.57;5.22;;;21.50;84.10;;;;;;6167710;23;20027;-84
2021/07/10 09:19:05;;;;;;;10.23;6.38;;;21.40;84.50;;;;;;6218172;23;20434;-85
2021/07/10 09:21:51;;;;;;;9.30;6.63;;;21.40;84.30;;;;;;6217103;23;19996;-85
2021/07/10 09:24:34;;;;;;;8.38;5.85;;;21.50;85.10;;;;;;6245831;23;20039;-84
2021/07/10 09:27:05;;;;;;;8.82;6.55;;;21.60;84.50;;;;;;6255051;23;20386;-83
2021/07/10 09:29:40;;;;;;;8.73;6.05;;;21.50;83.50;;;;;;6247791;22;20087;-82
2021/07/10 09:32:11;;;;;;;11.80;8.57;;;21.60;83.80;;;;;;6219099;23;20015;-83
2021/07/10 09:34:44;;;;;;;11.05;8.35;;;21.60;82.70;;;;;;6220617;23;20020;-82
2021/07/10 09:37:12;;;;;;;11.20;8.20;;;21.60;83.40;;;;;;6245662;23;20000;-83
2021/07/10 09:39:56;;;;;;;9.65;7.13;;;21.70;83.20;;;;;;6219385;23;20004;-83
2021/07/10 09:42:33;;;;;;;10.73;7.70;;;21.80;83.80;;;;;;6219154;23;20377;-83
2021/07/10 09:45:00;;;;;;;10.35;7.65;;;21.90;83.30;;;;;;6219387;23;20116;-81
2021/07/10 09:47:31;;;;;;;8.55;6.70;;;21.80;82.60;;;;;;6220203;23;20061;-83
2021/07/10 09:49:57;;;;;;;;;;;21.90;82.50;;;;;;6219889;23;20015;-83
2021/07/10 09:52:28;;;;;;;9.60;6.32;;;22.00;82.70;;;;;;6245089;23;19974;-83
2021/07/10 09:55:15;;;;;;;10.30;7.15;;;22.00;82.80;;;;;;6246540;23;20073;-83
2021/07/10 09:57:42;;;;;;;8.93;6.57;;;22.10;82.80;;;;;;6220114;23;20004;-84
2021/07/10 10:00:17;;;;;;;7.90;5.95;;;22.10;83.10;;;;;;6225615;23;20063;-81
2021/07/10 10:02:56;;;;;;;8.52;6.50;;;22.20;83.40;;;;;;6236959;23;20405;-83
2021/07/10 10:05:28;;;;;;;10.15;6.95;;;22.30;83.50;;;;;;6202893;23;20018;-85
2021/07/10 10:08:00;;;;;;;11.20;7.75;;;22.30;83.00;;;;;;6249791;23;20055;-85
2021/07/10 10:10:39;;;;;;;13.05;8.82;;;22.30;82.60;;;;;;6250036;23;20023;-84
2021/07/10 10:13:05;;;;;;;10.75;7.40;;;22.40;81.90;;;;;;6219732;23;20319;-87
2021/07/10 10:15:46;;;;;;;11.50;8.95;;;22.40;82.00;;;;;;6220724;23;20004;-84
2021/07/10 10:18:14;;;;;;;10.85;7.13;;;22.40;81.60;;;;;;6248284;23;20006;-85
2021/07/10 10:20:41;;;;;;;18.77;8.85;;;22.40;81.90;;;;;;6220697;23;20000;-90
2021/07/10 10:23:07;;;;;;;11.38;7.50;;;22.50;82.10;;;;;;6220768;23;20442;-87
2021/07/10 10:25:34;;;;;;;13.70;7.50;;;22.50;82.50;;;;;;6224176;23;20034;-80
2021/07/10 10:28:02;;;;;;;10.27;7.32;;;22.60;82.30;;;;;;6193464;23;20069;-83
2021/07/10 10:30:28;;;;;;;9.55;6.85;;;22.60;81.80;;;;;;6207466;23;20069;-83
2021/07/10 10:32:53;;;;;;;8.75;6.57;;;22.60;82.20;;;;;;6218172;23;20035;-82
2021/07/10 10:35:19;;;;;;;8.45;6.30;;;22.70;82.50;;;;;;6192790;23;20330;-82
2021/07/10 10:37:45;;;;;;;10.85;7.80;;;22.70;82.80;;;;;;6217577;23;20547;-82
2021/07/10 10:40:15;;;;;;;9.10;7.00;;;22.80;81.80;;;;;;6243088;23;20035;-83
2021/07/10 10:42:44;;;;;;;8.95;6.28;;;22.90;82.00;;;;;;6244151;23;20028;-82
2021/07/10 10:45:11;;;;;;;7.80;6.00;;;23.00;82.10;;;;;;6242996;23;20059;-82
2021/07/10 10:47:45;;;;;;;8.85;6.55;;;23.00;82.10;;;;;;6218220;23;20007;-81
2021/07/10 10:50:19;;;;;;;9.00;6.88;;;23.10;81.90;;;;;;6243415;23;20000;-82
2021/07/10 10:52:46;;;;;;;8.52;6.35;;;23.20;81.10;;;;;;6243792;23;20019;-82
2021/07/10 10:55:33;;;;;;;8.25;6.18;;;23.30;81.10;;;;;;6219017;23;20008;-84
2021/07/10 10:58:15;;;;;;;8.10;5.93;;;23.40;81.40;;;;;;6270167;22;20004;-84
2021/07/10 11:00:43;;;;;;;7.05;5.43;;;23.40;81.90;;;;;;6244946;23;20047;-84
2021/07/10 11:03:12;;;;;;;8.82;6.15;;;23.50;78.10;;;;;;6220522;23;20011;-84
2021/07/10 11:05:48;;;;;;;7.25;5.38;;;23.50;78.60;;;;;;6246502;22;20015;-83
2021/07/10 11:08:19;;;;;;;7.97;5.00;;;23.50;78.20;;;;;;6245163;23;19996;-86
2021/07/10 11:10:58;;;;;;;6.40;4.75;;;23.50;77.20;;;;;;6245426;23;20481;-85
2021/07/10 11:13:26;;;;;;;6.25;4.32;;;23.50;76.70;;;;;;6246833;22;19996;-83
2021/07/10 11:16:05;;;;;;;5.68;4.03;;;23.40;76.60;;;;;;6249043;23;20047;-84
2021/07/10 11:18:47;;;;;;;6.22;4.75;;;23.50;77.30;;;;;;6264538;23;19996;-85
2021/07/10 11:21:34;;;;;;;6.00;4.05;;;23.50;77.60;;;;;;6268536;23;20020;-86
2021/07/10 11:26:56;;;;;;;8.35;5.90;;;23.60;77.90;;;;;;6268167;23;20012;-85
2021/07/10 11:29:40;;;;;;;7.70;5.70;;;23.60;76.00;;;;;;6253890;22;20000;-83
2021/07/10 11:32:12;;;;;;;6.70;5.28;;;23.60;75.90;;;;;;6227069;23;20027;-83
2021/07/10 11:34:49;;;;;;;6.90;5.07;;;23.60;75.70;;;;;;6220296;23;20015;-83
2021/07/10 11:37:23;;;;;;;5.60;4.35;;;23.70;75.70;;;;;;6244599;23;20000;-83
2021/07/10 11:40:06;;;;;;;6.20;4.30;;;23.70;76.40;;;;;;6219538;23;20004;-83
2021/07/10 11:42:37;;;;;;;6.05;4.05;;;23.70;76.80;;;;;;6244624;23;20007;-83
2021/07/10 11:45:26;;;;;;;6.25;4.63;;;23.80;77.10;;;;;;6151401;23;20368;-83
2021/07/10 11:47:56;;;;;;;5.85;3.65;;;23.90;77.00;;;;;;6104008;23;20124;-83
2021/07/10 11:50:38;;;;;;;5.85;4.03;;;24.00;77.40;;;;;;6126909;23;20028;-83
2021/07/10 11:53:09;;;;;;;7.18;4.78;;;24.10;77.00;;;;;;6103353;23;20400;-83
2021/07/10 11:55:39;;;;;;;7.22;4.30;;;24.20;76.40;;;;;;6150735;23;20009;-82
2021/07/10 11:58:15;;;;;;;7.70;4.38;;;24.20;76.30;;;;;;6126988;23;20001;-83
2021/07/10 12:00:44;;;;;;;6.05;4.30;;;24.30;77.00;;;;;;6126553;23;20001;-82
2021/07/10 12:03:24;;;;;;;7.35;5.00;;;24.40;76.60;;;;;;6127038;23;20056;-82
2021/07/10 12:05:55;;;;;;;5.90;4.57;;;24.40;75.10;;;;;;6126538;23;20021;-83
2021/07/10 12:08:21;;;;;;;7.03;5.40;;;24.50;75.50;;;;;;6127350;23;20039;-84
2021/07/10 12:10:49;;;;;;;6.05;4.72;;;24.50;73.80;;;;;;6126651;23;20059;-83
2021/07/10 12:13:19;;;;;;;6.70;4.22;;;24.50;74.60;;;;;;6150980;23;20002;-85
2021/07/10 12:15:49;;;;;;;6.47;4.85;;;24.60;75.30;;;;;;6149763;23;20012;-82
2021/07/10 12:18:18;;;;;;;6.13;4.28;;;24.70;75.80;;;;;;6244541;23;20066;-83
2021/07/10 12:20:48;;;;;;;5.15;3.85;;;24.70;73.90;;;;;;6217730;23;20084;-85
2021/07/10 12:23:22;;;;;;;5.70;4.03;;;24.80;74.50;;;;;;6244863;23;20437;-85
2021/07/10 12:25:58;;;;;;;5.35;3.97;;;24.80;74.70;;;;;;6244720;23;20074;-83
2021/07/10 12:28:54;;;;;;;4.95;3.67;;;24.90;74.60;;;;;;6251174;23;20000;-95
2021/07/10 12:31:30;;;;;;;6.30;4.35;;;25.00;74.50;;;;;;6229631;23;20012;-94
2021/07/10 12:48:02;;;;;;;;;;;;;;;;;;;;;
2021/07/10 12:50:31;;;;;;;5.43;3.88;;;25.10;71.50;;;;;;6187420;23;20009;-94
2021/07/10 12:53:31;;;;;;;;;;;;;;;;;;;;;
2021/07/10 12:57:10;;;;;;;6.78;3.83;;;25.20;71.90;;;;;;6250401;23;20076;-94
2021/07/10 12:59:16;;;;;;;;;;;;;;;;;;;;;
2021/07/10 13:01:48;;;;;;;5.90;4.18;;;25.30;70.90;;;;;;6128417;23;20359;-94
2021/07/10 13:04:23;;;;;;;4.75;3.28;;;25.30;69.80;;;;;;6223731;23;20007;-96
2021/07/10 13:06:51;;;;;;;6.15;4.03;;;25.30;70.40;;;;;;6246466;23;20068;-94
2021/07/10 13:12:50;;;;;;;5.93;4.10;;;25.50;69.90;;;;;;6148215;23;20021;-81
2021/07/10 13:15:30;;;;;;;6.90;4.50;;;25.50;69.00;;;;;;6208467;23;20118;-81
2021/07/10 13:18:14;;;;;;;5.95;4.20;;;25.50;68.90;;;;;;6244733;23;20099;-93
2021/07/10 13:21:09;;;;;;;7.60;4.30;;;25.60;69.30;;;;;;6242828;23;20028;-81
2021/07/10 13:23:41;;;;;;;8.45;4.25;;;25.60;69.00;;;;;;6239971;23;19996;-82